createdAt,value
2018-09-28T00:02:04.011Z,9.40
2018-09-28T00:04:32.627Z,7.10
2018-09-28T00:07:01.251Z,7.87
2018-09-28T00:09:30.419Z,6.30
2018-09-28T00:11:59.031Z,8.80
2018-09-28T00:14:27.669Z,3.80
2018-09-28T00:16:56.239Z,6.07
2018-09-28T00:19:24.805Z,7.10
2018-09-28T00:21:53.350Z,7.97
2018-09-28T00:24:22.233Z,6.17
2018-09-28T00:26:50.857Z,3.37
2018-09-28T00:29:19.611Z,5.07
2018-09-28T00:31:48.639Z,7.03
2018-09-28T00:34:17.167Z,6.10
2018-09-28T00:36:45.951Z,3.77
2018-09-28T00:39:14.924Z,7.77
2018-09-28T00:41:43.612Z,7.10
2018-09-28T00:44:12.355Z,8.80
2018-09-28T00:46:41.177Z,7.10
2018-09-28T00:49:09.853Z,5.47
2018-09-28T00:51:38.503Z,11.83
2018-09-28T00:54:07.296Z,6.17
2018-09-28T00:56:35.915Z,6.80
2018-09-28T00:59:04.650Z,6.12
2018-09-28T01:01:33.316Z,4.60
2018-09-28T01:04:02.259Z,3.57
2018-09-28T01:06:30.891Z,5.90
2018-09-28T01:08:59.822Z,3.57
2018-09-28T01:11:28.614Z,4.97
2018-09-28T01:13:57.258Z,3.20
2018-09-28T01:16:25.935Z,4.63
2018-09-28T01:18:54.771Z,4.00
2018-09-28T01:21:23.470Z,3.20
2018-09-28T01:23:52.079Z,3.57
2018-09-28T01:26:20.627Z,5.10
2018-09-28T01:28:49.226Z,5.17
2018-09-28T01:31:17.961Z,3.03
2018-09-28T01:33:46.492Z,2.33
2018-09-28T01:36:15.300Z,3.33
2018-09-28T01:38:44.147Z,3.17
2018-09-28T01:41:13.375Z,6.87
2018-09-28T01:43:41.911Z,8.20
2018-09-28T01:46:10.657Z,3.03
2018-09-28T01:48:39.294Z,4.27
2018-09-28T01:51:07.915Z,5.40
2018-09-28T01:53:36.546Z,3.30
2018-09-28T01:56:05.193Z,5.03
2018-09-28T01:58:33.805Z,1.77
2018-09-28T02:01:02.645Z,1.63
2018-09-28T02:03:31.256Z,1.47
2018-09-28T02:06:00.082Z,2.37
2018-09-28T02:08:29.223Z,4.53
2018-09-28T02:10:57.951Z,6.10
2018-09-28T02:13:26.535Z,1.27
2018-09-28T02:15:55.466Z,2.30
2018-09-28T02:18:24.063Z,2.00
2018-09-28T02:20:52.671Z,2.17
2018-09-28T02:23:21.442Z,2.63
2018-09-28T02:25:50.090Z,2.57
2018-09-28T02:28:18.739Z,2.47
2018-09-28T02:30:47.576Z,2.40
2018-09-28T02:33:16.111Z,3.37
2018-09-28T02:35:44.715Z,4.37
2018-09-28T02:38:13.356Z,4.87
2018-09-28T02:40:41.963Z,1.70
2018-09-28T02:43:10.630Z,1.43
2018-09-28T02:45:39.406Z,3.10
2018-09-28T02:48:07.974Z,1.13
2018-09-28T02:50:36.539Z,2.77
2018-09-28T02:53:05.433Z,0.97
2018-09-28T02:55:33.955Z,3.47
2018-09-28T02:58:02.494Z,0.97
2018-09-28T03:00:31.067Z,3.57
2018-09-28T03:02:59.571Z,1.07
2018-09-28T03:05:28.114Z,3.10
2018-09-28T03:07:56.681Z,1.43
2018-09-28T03:10:25.235Z,3.53
2018-09-28T03:12:53.754Z,1.63
2018-09-28T03:15:22.337Z,1.50
2018-09-28T03:17:50.961Z,1.53
2018-09-28T03:20:19.451Z,1.87
2018-09-28T03:22:48.179Z,0.47
2018-09-28T03:25:16.810Z,3.37
2018-09-28T03:27:45.631Z,1.70
2018-09-28T03:30:14.235Z,1.43
2018-09-28T03:32:42.812Z,1.30
2018-09-28T03:35:11.315Z,0.30
2018-09-28T03:37:39.911Z,2.17
2018-09-28T03:40:08.427Z,1.27
2018-09-28T03:42:36.993Z,0.60
2018-09-28T03:45:06.403Z,2.40
2018-09-28T03:47:35.430Z,1.83
2018-09-28T03:50:04.184Z,2.10
2018-09-28T03:52:32.658Z,1.33
2018-09-28T03:55:01.187Z,1.83
2018-09-28T03:57:29.714Z,2.10
2018-09-28T03:59:58.267Z,1.27
2018-09-28T04:02:26.815Z,2.13
2018-09-28T04:04:55.371Z,2.57
2018-09-28T04:07:23.876Z,2.83
2018-09-28T04:09:52.390Z,1.23
2018-09-28T04:12:20.902Z,5.87
2018-09-28T04:14:49.440Z,2.87
2018-09-28T04:17:18.017Z,3.00
2018-09-28T04:19:46.472Z,1.47
2018-09-28T04:22:15.015Z,0.37
2018-09-28T04:24:43.651Z,1.20
2018-09-28T04:27:12.118Z,2.57
2018-09-28T04:29:40.630Z,2.30
2018-09-28T04:32:09.149Z,1.10
2018-09-28T04:34:37.717Z,2.27
2018-09-28T04:37:18.411Z,2.23
2018-09-28T04:39:46.946Z,2.70
2018-09-28T04:42:15.521Z,1.40
2018-09-28T04:44:44.423Z,0.40
2018-09-28T04:47:13.394Z,7.43
2018-09-28T04:49:41.938Z,3.23
2018-09-28T04:52:10.428Z,1.30
2018-09-28T04:54:38.934Z,2.33
2018-09-28T04:57:07.452Z,1.07
2018-09-28T04:59:36.026Z,0.83
2018-09-28T05:02:04.596Z,1.00
2018-09-28T05:04:33.528Z,0.50
2018-09-28T05:07:02.290Z,0.87
2018-09-28T05:09:30.795Z,1.17
2018-09-28T05:11:59.334Z,2.10
2018-09-28T05:14:28.866Z,1.40
2018-09-28T05:16:57.406Z,2.70
2018-09-28T05:19:26.031Z,1.27
2018-09-28T05:21:54.651Z,1.73
2018-09-28T05:24:23.163Z,1.33
2018-09-28T05:26:51.806Z,2.77
2018-09-28T05:29:20.443Z,2.57
2018-09-28T05:31:49.100Z,1.17
2018-09-28T05:34:17.598Z,4.20
2018-09-28T05:36:46.483Z,1.90
2018-09-28T05:39:15.017Z,2.00
2018-09-28T05:41:43.734Z,2.73
2018-09-28T05:44:12.399Z,3.30
2018-09-28T05:46:40.990Z,0.70
2018-09-28T05:49:09.667Z,2.07
2018-09-28T05:51:38.220Z,0.30
2018-09-28T05:54:06.847Z,1.13
2018-09-28T05:56:35.305Z,1.40
2018-09-28T05:59:09.123Z,2.37
2018-09-28T06:01:42.955Z,1.53
2018-09-28T06:04:16.871Z,3.27
2018-09-28T06:06:45.442Z,1.00
2018-09-28T06:09:13.923Z,1.23
2018-09-28T06:11:42.428Z,1.67
2018-09-28T06:14:11.582Z,0.90
2018-09-28T06:16:40.075Z,1.83
2018-09-28T06:19:08.596Z,3.23
2018-09-28T06:21:37.237Z,0.80
2018-09-28T06:24:05.998Z,2.33
2018-09-28T06:26:34.523Z,2.37
2018-09-28T06:29:03.159Z,1.93
2018-09-28T06:31:31.675Z,0.30
2018-09-28T06:34:00.235Z,2.40
2018-09-28T06:36:29.204Z,0.90
2018-09-28T06:38:57.783Z,0.53
2018-09-28T06:41:26.293Z,2.00
2018-09-28T06:43:55.198Z,3.50
2018-09-28T06:46:23.857Z,0.10
2018-09-28T06:48:52.411Z,3.10
2018-09-28T06:51:21.295Z,0.97
2018-09-28T06:53:50.064Z,0.93
2018-09-28T06:56:18.642Z,0.83
2018-09-28T06:58:47.431Z,0.60
2018-09-28T07:01:16.463Z,1.70
2018-09-28T07:03:45.123Z,0.93
2018-09-28T07:06:44.619Z,0.20
2018-09-28T07:09:13.636Z,0.40
2018-09-28T07:11:42.302Z,0.93
2018-09-28T07:14:11.265Z,2.63
2018-09-28T07:16:40.473Z,0.80
2018-09-28T07:19:09.354Z,1.70
2018-09-28T07:21:38.066Z,1.10
2018-09-28T07:24:06.589Z,1.93
2018-09-28T07:26:35.093Z,0.93
2018-09-28T07:29:03.827Z,1.60
2018-09-28T07:31:32.392Z,1.23
2018-09-28T07:34:01.208Z,0.67
2018-09-28T07:36:29.944Z,2.50
2018-09-28T07:38:58.790Z,1.63
2018-09-28T07:41:27.513Z,0.67
2018-09-28T07:43:56.153Z,1.67
2018-09-28T07:46:24.831Z,1.67
2018-09-28T07:48:53.578Z,0.83
2018-09-28T07:51:22.336Z,0.20
2018-09-28T07:53:50.927Z,0.70
2018-09-28T07:56:19.536Z,0.93
2018-09-28T07:58:48.326Z,0.20
2018-09-28T08:01:16.898Z,1.73
2018-09-28T08:03:45.486Z,0.97
2018-09-28T08:06:14.452Z,1.53
2018-09-28T08:08:43.062Z,2.30
2018-09-28T08:11:11.862Z,0.40
2018-09-28T08:13:40.521Z,0.60
2018-09-28T08:16:09.456Z,0.47
2018-09-28T08:18:38.047Z,0.57
2018-09-28T08:21:06.803Z,0.63
2018-09-28T08:23:35.819Z,0.33
2018-09-28T08:26:04.411Z,0.47
2018-09-28T08:28:33.556Z,0.77
2018-09-28T08:31:02.167Z,0.57
2018-09-28T08:33:30.754Z,0.00
2018-09-28T08:35:59.438Z,0.43
2018-09-28T08:38:28.090Z,0.73
2018-09-28T08:40:56.884Z,0.10
2018-09-28T08:43:25.612Z,0.63
2018-09-28T08:45:54.335Z,0.97
2018-09-28T08:48:23.010Z,0.10
2018-09-28T08:50:52.156Z,0.77
2018-09-28T08:53:21.160Z,0.20
2018-09-28T08:55:49.873Z,0.20
2018-09-28T08:58:18.843Z,0.33
2018-09-28T09:00:47.476Z,0.10
2018-09-28T09:03:16.139Z,1.07
2018-09-28T09:05:45.029Z,0.00
2018-09-28T09:08:13.663Z,0.63
2018-09-28T09:10:42.326Z,0.17
2018-09-28T09:13:11.331Z,0.00
2018-09-28T09:15:40.013Z,0.00
2018-09-28T09:18:08.794Z,0.20
2018-09-28T09:20:37.462Z,0.10
2018-09-28T09:23:06.083Z,1.03
2018-09-28T09:28:14.258Z,0.10
2018-09-28T09:30:42.992Z,0.43
2018-09-28T09:33:11.695Z,0.87
2018-09-28T09:35:40.558Z,0.00
2018-09-28T09:38:09.191Z,0.10
2018-09-28T09:40:37.839Z,0.10
2018-09-28T09:43:06.595Z,0.00
2018-09-28T09:45:35.306Z,0.00
2018-09-28T09:48:03.961Z,0.10
2018-09-28T09:50:32.701Z,0.20
2018-09-28T09:53:01.330Z,0.00
2018-09-28T09:55:30.282Z,0.67
2018-09-28T09:57:59.163Z,0.20
2018-09-28T10:00:33.177Z,0.00
2018-09-28T10:03:06.231Z,0.03
2018-09-28T10:05:34.878Z,0.00
2018-09-28T10:08:03.586Z,0.03
2018-09-28T10:10:32.568Z,0.00
2018-09-28T10:13:01.350Z,0.00
2018-09-28T10:15:30.353Z,0.00
2018-09-28T10:17:59.370Z,1.07
2018-09-28T10:20:27.943Z,0.10
2018-09-28T10:22:56.639Z,0.10
2018-09-28T10:25:25.375Z,0.10
2018-09-28T10:27:53.988Z,0.00
2018-09-28T10:30:22.627Z,0.00
2018-09-28T10:32:51.271Z,0.00
2018-09-28T10:35:20.041Z,0.00
2018-09-28T10:37:48.739Z,0.50
2018-09-28T10:40:17.363Z,0.00
2018-09-28T10:42:46.023Z,0.00
2018-09-28T10:45:14.781Z,0.73
2018-09-28T10:47:43.391Z,0.00
2018-09-28T10:50:12.312Z,0.40
2018-09-28T10:52:41.058Z,0.20
2018-09-28T10:55:09.547Z,0.57
2018-09-28T10:57:38.175Z,0.00
2018-09-28T11:00:07.063Z,0.20
2018-09-28T11:02:35.731Z,0.00
2018-09-28T11:05:04.663Z,0.00
2018-09-28T11:07:33.355Z,0.00
2018-09-28T11:10:02.116Z,0.10
2018-09-28T11:12:30.712Z,0.23
2018-09-28T11:14:59.388Z,0.00
2018-09-28T11:17:28.049Z,0.07
2018-09-28T11:19:56.707Z,0.57
2018-09-28T11:22:25.394Z,0.00
2018-09-28T11:24:54.636Z,0.00
2018-09-28T11:27:23.327Z,0.07
2018-09-28T11:29:52.367Z,0.00
2018-09-28T11:32:21.048Z,0.00
2018-09-28T11:34:49.707Z,0.17
2018-09-28T11:37:18.642Z,0.00
2018-09-28T11:39:47.331Z,0.07
2018-09-28T11:42:15.923Z,0.10
2018-09-28T11:44:45.343Z,0.77
2018-09-28T11:47:14.003Z,1.03
2018-09-28T11:49:42.531Z,0.10
2018-09-28T11:52:11.202Z,1.37
2018-09-28T11:54:39.796Z,0.00
2018-09-28T11:57:08.663Z,0.93
2018-09-28T12:02:13.607Z,0.50
2018-09-28T12:04:42.644Z,2.27
2018-09-28T12:07:11.471Z,0.93
2018-09-28T12:09:40.785Z,2.40
2018-09-28T12:12:09.708Z,0.43
2018-09-28T12:14:38.240Z,1.60
2018-09-28T12:17:07.007Z,1.07
2018-09-28T12:19:35.497Z,1.27
2018-09-28T12:22:04.219Z,2.80
2018-09-28T12:24:32.899Z,0.83
2018-09-28T12:27:01.528Z,0.67
2018-09-28T12:29:30.249Z,1.27
2018-09-28T12:31:58.880Z,0.80
2018-09-28T12:34:27.519Z,0.27
2018-09-28T12:36:56.359Z,1.17
2018-09-28T12:39:25.271Z,0.20
2018-09-28T12:41:53.883Z,1.90
2018-09-28T12:44:22.615Z,1.63
2018-09-28T12:46:51.588Z,0.03
2018-09-28T12:49:20.375Z,0.50
2018-09-28T12:51:49.135Z,1.23
2018-09-28T12:54:21.220Z,0.97
2018-09-28T12:56:49.943Z,1.40
2018-09-28T12:59:18.582Z,0.37
2018-09-28T13:01:47.358Z,1.13
2018-09-28T13:04:16.914Z,0.47
2018-09-28T13:06:47.313Z,0.10
2018-09-28T13:09:16.023Z,1.53
2018-09-28T13:11:44.731Z,0.87
2018-09-28T13:14:19.520Z,0.90
2018-09-28T13:16:48.043Z,1.43
2018-09-28T13:19:17.347Z,0.87
2018-09-28T13:21:46.111Z,0.70
2018-09-28T13:24:14.661Z,1.37
2018-09-28T13:26:43.287Z,0.13
2018-09-28T13:29:12.099Z,0.13
2018-09-28T13:31:40.714Z,0.20
2018-09-28T13:34:09.327Z,0.87
2018-09-28T13:36:38.614Z,0.40
2018-09-28T13:39:08.611Z,0.90
2018-09-28T13:41:37.526Z,1.13
2018-09-28T13:44:06.269Z,1.60
2018-09-28T13:46:34.904Z,1.83
2018-09-28T13:49:03.474Z,0.27
2018-09-28T13:51:32.937Z,1.40
2018-09-28T13:54:01.549Z,0.50
2018-09-28T13:56:30.073Z,2.50
2018-09-28T13:58:58.803Z,2.33
2018-09-28T14:01:27.411Z,1.13
2018-09-28T14:03:55.971Z,2.20
2018-09-28T14:06:24.773Z,2.63
2018-09-28T14:08:53.543Z,0.50
2018-09-28T14:11:22.275Z,1.07
2018-09-28T14:13:51.075Z,1.53
2018-09-28T14:16:19.753Z,1.33
2018-09-28T14:18:48.456Z,0.10
2018-09-28T14:21:17.018Z,1.27
2018-09-28T14:23:45.638Z,0.43
2018-09-28T14:26:14.226Z,1.97
2018-09-28T14:28:43.144Z,1.47
2018-09-28T14:31:11.761Z,0.00
2018-09-28T14:33:40.336Z,1.63
2018-09-28T14:36:09.253Z,0.40
2018-09-28T14:38:37.902Z,0.73
2018-09-28T14:41:06.552Z,0.30
2018-09-28T14:43:35.200Z,0.50
2018-09-28T14:46:03.899Z,1.03
2018-09-28T14:48:32.616Z,0.13
2018-09-28T14:51:01.219Z,0.73
2018-09-28T14:53:29.832Z,1.50
2018-09-28T14:55:58.487Z,0.00
2018-09-28T14:58:27.789Z,1.07
2018-09-28T15:00:56.343Z,1.00
2018-09-28T15:03:24.888Z,1.43
2018-09-28T15:05:53.918Z,1.60
2018-09-28T15:08:22.807Z,2.43
2018-09-28T15:10:51.406Z,1.23
2018-09-28T15:13:19.998Z,1.57
2018-09-28T15:15:48.574Z,2.20
2018-09-28T15:18:17.089Z,1.13
2018-09-28T15:20:46.132Z,1.83
2018-09-28T15:23:14.863Z,0.00
2018-09-28T15:25:43.387Z,0.20
2018-09-28T15:28:12.038Z,0.80
2018-09-28T15:30:40.559Z,1.60
2018-09-28T15:33:09.181Z,0.03
2018-09-28T15:35:38.243Z,0.53
2018-09-28T15:38:06.983Z,0.57
2018-09-28T15:40:36.694Z,0.53
2018-09-28T15:43:05.543Z,0.70
2018-09-28T15:45:34.313Z,1.43
2018-09-28T15:48:03.011Z,2.30
2018-09-28T15:50:31.847Z,3.33
2018-09-28T15:53:00.390Z,0.13
2018-09-28T15:55:28.899Z,1.00
2018-09-28T15:57:58.053Z,0.50
2018-09-28T16:00:26.764Z,0.67
2018-09-28T16:02:55.270Z,1.30
2018-09-28T16:05:23.894Z,0.10
2018-09-28T16:07:52.396Z,1.13
2018-09-28T16:10:20.879Z,0.00
2018-09-28T16:12:49.998Z,0.83
2018-09-28T16:15:19.211Z,2.33
2018-09-28T16:17:47.695Z,0.27
2018-09-28T16:20:16.827Z,1.40
2018-09-28T16:22:45.334Z,0.53
2018-09-28T16:25:13.875Z,1.17
2018-09-28T16:27:42.569Z,3.23
2018-09-28T16:30:11.605Z,0.20
2018-09-28T16:32:40.091Z,0.30
2018-09-28T16:35:08.816Z,0.83
2018-09-28T16:37:37.291Z,0.77
2018-09-28T16:40:05.813Z,0.20
2018-09-28T16:42:34.543Z,0.07
2018-09-28T16:45:03.068Z,0.20
2018-09-28T16:47:32.050Z,0.13
2018-09-28T16:50:00.702Z,0.77
2018-09-28T16:52:29.226Z,0.17
2018-09-28T16:54:57.774Z,0.50
2018-09-28T16:57:26.519Z,0.97
2018-09-28T16:59:55.059Z,0.83
2018-09-28T17:02:23.618Z,0.10
2018-09-28T17:04:52.525Z,1.00
2018-09-28T17:07:21.783Z,0.97
2018-09-28T17:09:50.351Z,1.60
2018-09-28T17:12:19.180Z,2.10
2018-09-28T17:14:48.175Z,0.10
2018-09-28T17:17:16.789Z,0.10
2018-09-28T17:19:45.503Z,0.10
2018-09-28T17:22:14.254Z,0.70
2018-09-28T17:24:42.788Z,0.67
2018-09-28T17:27:11.455Z,1.80
2018-09-28T17:29:40.022Z,0.50
2018-09-28T17:32:08.639Z,0.23
2018-09-28T17:34:37.302Z,0.10
2018-09-28T17:37:05.815Z,0.63
2018-09-28T17:39:34.357Z,0.73
2018-09-28T17:42:03.035Z,0.20
2018-09-28T17:44:31.563Z,0.20
2018-09-28T17:47:00.025Z,0.73
2018-09-28T17:49:28.849Z,1.07
2018-09-28T17:51:57.455Z,0.87
2018-09-28T17:54:26.039Z,0.93
2018-09-28T17:56:54.675Z,0.23
2018-09-28T17:59:23.350Z,0.80
2018-09-28T18:01:51.858Z,2.03
2018-09-28T18:04:20.415Z,1.20
2018-09-28T18:06:48.908Z,1.13
2018-09-28T18:09:17.415Z,1.40
2018-09-28T18:11:46.792Z,0.73
2018-09-28T18:14:15.501Z,0.97
2018-09-28T18:16:44.697Z,0.57
2018-09-28T18:19:13.670Z,0.10
2018-09-28T18:21:42.206Z,0.67
2018-09-28T18:24:10.727Z,0.10
2018-09-28T18:26:40.279Z,0.40
2018-09-28T18:29:08.786Z,0.20
2018-09-28T18:31:37.399Z,1.17
2018-09-28T18:34:06.111Z,1.17
2018-09-28T18:36:34.613Z,0.83
2018-09-28T18:39:03.483Z,1.90
2018-09-28T18:41:32.323Z,0.30
2018-09-28T18:44:01.007Z,0.23
2018-09-28T18:46:29.540Z,1.57
2018-09-28T18:48:58.230Z,0.50
2018-09-28T18:51:27.016Z,0.40
2018-09-28T18:53:55.574Z,0.20
2018-09-28T18:56:24.389Z,0.10
2018-09-28T18:58:53.047Z,1.67
2018-09-28T19:01:21.673Z,0.60
2018-09-28T19:03:50.588Z,1.07
2018-09-28T19:06:19.269Z,0.20
2018-09-28T19:08:47.806Z,1.00
2018-09-28T19:11:16.411Z,0.87
2018-09-28T19:13:44.906Z,0.47
2018-09-28T19:16:13.744Z,0.80
2018-09-28T19:18:42.895Z,0.20
2018-09-28T19:21:11.451Z,1.13
2018-09-28T19:23:39.978Z,0.40
2018-09-28T19:26:08.922Z,2.20
2018-09-28T19:28:37.521Z,1.30
2018-09-28T19:31:05.993Z,0.73
2018-09-28T19:33:34.789Z,0.30
2018-09-28T19:36:03.375Z,0.50
2018-09-28T19:38:31.955Z,0.50
2018-09-28T19:41:00.710Z,0.93
2018-09-28T19:43:29.587Z,1.53
2018-09-28T19:45:58.170Z,0.93
2018-09-28T19:48:27.527Z,1.00
2018-09-28T19:50:56.262Z,0.30
2018-09-28T19:53:24.770Z,2.13
2018-09-28T19:55:53.286Z,0.63
2018-09-28T19:58:21.823Z,1.50
2018-09-28T20:00:50.270Z,0.20
2018-09-28T20:03:18.871Z,1.50
2018-09-28T20:05:47.885Z,1.27
2018-09-28T20:08:16.377Z,2.73
2018-09-28T20:10:44.911Z,0.80
2018-09-28T20:13:13.544Z,0.50
2018-09-28T20:15:42.120Z,1.30
2018-09-28T20:18:10.683Z,1.13
2018-09-28T20:20:39.567Z,3.77
2018-09-28T20:23:08.077Z,0.30
2018-09-28T20:25:36.590Z,0.87
2018-09-28T20:28:05.302Z,0.90
2018-09-28T20:30:33.844Z,1.40
2018-09-28T20:33:02.487Z,1.43
2018-09-28T20:35:31.173Z,0.70
2018-09-28T20:37:59.854Z,0.63
2018-09-28T20:40:28.458Z,1.43
2018-09-28T20:42:57.159Z,0.30
2018-09-28T20:45:25.602Z,0.67
2018-09-28T20:47:54.318Z,1.90
2018-09-28T20:50:22.791Z,2.30
2018-09-28T20:52:51.334Z,0.50
2018-09-28T20:55:19.809Z,0.60
2018-09-28T20:57:48.342Z,0.40
2018-09-28T21:00:16.973Z,0.43
2018-09-28T21:02:45.479Z,0.40
2018-09-28T21:05:14.091Z,1.17
2018-09-28T21:07:42.572Z,0.70
2018-09-28T21:10:11.160Z,3.13
2018-09-28T21:12:39.858Z,2.77
2018-09-28T21:15:08.386Z,1.27
2018-09-28T21:17:37.046Z,1.67
2018-09-28T21:20:05.681Z,1.10
2018-09-28T21:22:34.939Z,1.50
2018-09-28T21:25:03.554Z,2.53
2018-09-28T21:27:32.002Z,3.83
2018-09-28T21:30:00.467Z,0.83
2018-09-28T21:32:29.008Z,2.00
2018-09-28T21:34:57.607Z,0.60
2018-09-28T21:37:26.163Z,0.50
2018-09-28T21:39:54.834Z,1.40
2018-09-28T21:42:23.466Z,2.30
2018-09-28T21:44:51.915Z,2.13
2018-09-28T21:47:20.481Z,2.57
2018-09-28T21:49:49.005Z,1.70
2018-09-28T21:52:17.499Z,1.33
2018-09-28T21:54:46.147Z,0.83
2018-09-28T21:57:14.798Z,0.97
2018-09-28T21:59:43.275Z,1.17
2018-09-28T22:02:11.754Z,2.23
2018-09-28T22:04:40.320Z,0.63
2018-09-28T22:07:08.916Z,3.20
2018-09-28T22:09:37.790Z,0.83
2018-09-28T22:12:06.351Z,1.93
2018-09-28T22:14:34.864Z,2.17
2018-09-28T22:17:03.611Z,2.40
2018-09-28T22:19:32.156Z,1.20
2018-09-28T22:22:00.615Z,0.80
2018-09-28T22:24:29.617Z,1.13
2018-09-28T22:26:58.178Z,1.07
2018-09-28T22:29:26.706Z,1.77
2018-09-28T22:31:55.275Z,1.90
2018-09-28T22:34:23.731Z,1.63
2018-09-28T22:36:52.189Z,1.10
2018-09-28T22:39:21.017Z,1.40
2018-09-28T22:41:49.538Z,0.90
2018-09-28T22:44:18.008Z,1.50
2018-09-28T22:46:49.430Z,2.13
2018-09-28T22:49:17.906Z,2.30
2018-09-28T22:51:46.419Z,1.40
2018-09-28T22:54:15.299Z,1.40
2018-09-28T22:56:43.836Z,2.67
2018-09-28T22:59:12.336Z,0.70
2018-09-28T23:01:40.847Z,1.67
2018-09-28T23:04:09.787Z,1.27
2018-09-28T23:06:38.533Z,0.73
2018-09-28T23:09:08.177Z,1.23
2018-09-28T23:11:37.418Z,2.73
2018-09-28T23:14:05.918Z,1.07
2018-09-28T23:16:34.470Z,0.67
2018-09-28T23:19:02.955Z,0.90
2018-09-28T23:21:31.497Z,0.80
2018-09-28T23:24:00.051Z,1.63
2018-09-28T23:26:28.746Z,1.27
2018-09-28T23:28:57.225Z,1.70
2018-09-28T23:31:25.766Z,0.70
2018-09-28T23:33:54.203Z,2.17
2018-09-28T23:36:22.677Z,1.53
2018-09-28T23:38:51.185Z,0.77
2018-09-28T23:41:19.651Z,3.93
2018-09-28T23:43:48.142Z,1.10
2018-09-28T23:46:16.650Z,1.97
2018-09-28T23:48:45.107Z,1.33
2018-09-28T23:51:13.606Z,0.80
2018-09-28T23:53:42.131Z,0.73
2018-09-28T23:56:10.603Z,1.37
2018-09-28T23:58:39.095Z,1.37
